sensor_id;sensor_type;location;lat;lon;timestamp;P1;durP1;ratioP1;P2;durP2;ratioP2
71395;SDS011;59888;55.814;37.132;2023-08-12T00:00:37;16.38;;;9.88;;
71395;SDS011;59888;55.814;37.132;2023-08-12T00:03:03;13.73;;;10.38;;
71395;SDS011;59888;55.814;37.132;2023-08-12T00:05:29;14.38;;;9.90;;
71395;SDS011;59888;55.814;37.132;2023-08-12T00:07:55;15.80;;;9.65;;
71395;SDS011;59888;55.814;37.132;2023-08-12T00:10:22;12.90;;;9.30;;
71395;SDS011;59888;55.814;37.132;2023-08-12T00:12:49;18.52;;;10.57;;
71395;SDS011;59888;55.814;37.132;2023-08-12T00:15:15;13.70;;;10.52;;
71395;SDS011;59888;55.814;37.132;2023-08-12T00:17:41;15.73;;;9.70;;
71395;SDS011;59888;55.814;37.132;2023-08-12T00:20:08;13.63;;;10.00;;
71395;SDS011;59888;55.814;37.132;2023-08-12T00:22:37;17.27;;;9.35;;
71395;SDS011;59888;55.814;37.132;2023-08-12T00:25:05;11.68;;;9.02;;
71395;SDS011;59888;55.814;37.132;2023-08-12T00:27:32;14.60;;;9.68;;
71395;SDS011;59888;55.814;37.132;2023-08-12T00:29:58;11.98;;;9.32;;
71395;SDS011;59888;55.814;37.132;2023-08-12T00:32:25;15.27;;;9.38;;
71395;SDS011;59888;55.814;37.132;2023-08-12T00:34:51;14.60;;;9.15;;
71395;SDS011;59888;55.814;37.132;2023-08-12T00:37:17;15.75;;;10.38;;
71395;SDS011;59888;55.814;37.132;2023-08-12T00:39:45;11.20;;;8.93;;
71395;SDS011;59888;55.814;37.132;2023-08-12T00:42:11;16.25;;;9.73;;
71395;SDS011;59888;55.814;37.132;2023-08-12T00:44:37;14.45;;;10.25;;
71395;SDS011;59888;55.814;37.132;2023-08-12T00:47:03;12.82;;;9.68;;
71395;SDS011;59888;55.814;37.132;2023-08-12T00:49:30;13.70;;;9.20;;
71395;SDS011;59888;55.814;37.132;2023-08-12T00:51:58;11.85;;;8.73;;
71395;SDS011;59888;55.814;37.132;2023-08-12T00:54:25;14.70;;;9.50;;
71395;SDS011;59888;55.814;37.132;2023-08-12T00:56:53;11.77;;;9.25;;
71395;SDS011;59888;55.814;37.132;2023-08-12T00:59:19;12.27;;;9.40;;
71395;SDS011;59888;55.814;37.132;2023-08-12T01:01:47;12.95;;;9.10;;
71395;SDS011;59888;55.814;37.132;2023-08-12T01:04:14;14.90;;;9.63;;
71395;SDS011;59888;55.814;37.132;2023-08-12T01:06:40;15.48;;;9.85;;
71395;SDS011;59888;55.814;37.132;2023-08-12T01:09:09;16.52;;;9.07;;
71395;SDS011;59888;55.814;37.132;2023-08-12T01:11:39;11.55;;;8.52;;
71395;SDS011;59888;55.814;37.132;2023-08-12T01:14:22;13.35;;;8.77;;
71395;SDS011;59888;55.814;37.132;2023-08-12T01:16:53;15.02;;;8.85;;
71395;SDS011;59888;55.814;37.132;2023-08-12T01:19:38;14.15;;;8.73;;
71395;SDS011;59888;55.814;37.132;2023-08-12T01:22:06;16.23;;;9.30;;
71395;SDS011;59888;55.814;37.132;2023-08-12T01:24:38;13.88;;;8.77;;
71395;SDS011;59888;55.814;37.132;2023-08-12T01:27:11;19.33;;;10.02;;
71395;SDS011;59888;55.814;37.132;2023-08-12T01:29:45;11.02;;;9.07;;
71395;SDS011;59888;55.814;37.132;2023-08-12T01:32:30;15.07;;;8.68;;
71395;SDS011;59888;55.814;37.132;2023-08-12T01:35:11;14.80;;;8.77;;
71395;SDS011;59888;55.814;37.132;2023-08-12T01:37:39;17.88;;;9.45;;
71395;SDS011;59888;55.814;37.132;2023-08-12T01:40:05;12.93;;;9.05;;
71395;SDS011;59888;55.814;37.132;2023-08-12T01:42:34;16.85;;;8.85;;
71395;SDS011;59888;55.814;37.132;2023-08-12T01:45:02;14.13;;;9.05;;
71395;SDS011;59888;55.814;37.132;2023-08-12T01:47:32;16.00;;;8.65;;
71395;SDS011;59888;55.814;37.132;2023-08-12T01:49:58;13.85;;;9.00;;
71395;SDS011;59888;55.814;37.132;2023-08-12T01:52:25;13.48;;;8.73;;
71395;SDS011;59888;55.814;37.132;2023-08-12T01:54:51;16.15;;;8.93;;
71395;SDS011;59888;55.814;37.132;2023-08-12T01:57:17;20.25;;;9.65;;
71395;SDS011;59888;55.814;37.132;2023-08-12T01:59:44;18.80;;;9.30;;
71395;SDS011;59888;55.814;37.132;2023-08-12T02:02:11;15.98;;;9.90;;
71395;SDS011;59888;55.814;37.132;2023-08-12T02:04:37;14.27;;;9.02;;
71395;SDS011;59888;55.814;37.132;2023-08-12T02:07:05;16.13;;;8.57;;
71395;SDS011;59888;55.814;37.132;2023-08-12T02:09:31;15.32;;;9.38;;
71395;SDS011;59888;55.814;37.132;2023-08-12T02:11:57;21.02;;;8.30;;
71395;SDS011;59888;55.814;37.132;2023-08-12T02:14:25;20.27;;;9.20;;
71395;SDS011;59888;55.814;37.132;2023-08-12T02:16:52;23.10;;;10.55;;
71395;SDS011;59888;55.814;37.132;2023-08-12T02:19:20;17.60;;;9.20;;
71395;SDS011;59888;55.814;37.132;2023-08-12T02:21:46;20.13;;;8.75;;
71395;SDS011;59888;55.814;37.132;2023-08-12T02:24:12;17.98;;;8.85;;
71395;SDS011;59888;55.814;37.132;2023-08-12T02:26:38;15.23;;;9.50;;
71395;SDS011;59888;55.814;37.132;2023-08-12T02:29:05;15.02;;;9.30;;
71395;SDS011;59888;55.814;37.132;2023-08-12T02:31:31;25.77;;;9.18;;
71395;SDS011;59888;55.814;37.132;2023-08-12T02:33:57;18.52;;;9.43;;
71395;SDS011;59888;55.814;37.132;2023-08-12T02:36:25;16.23;;;8.70;;
71395;SDS011;59888;55.814;37.132;2023-08-12T02:38:56;14.50;;;8.82;;
71395;SDS011;59888;55.814;37.132;2023-08-12T02:41:22;14.50;;;8.98;;
71395;SDS011;59888;55.814;37.132;2023-08-12T02:43:49;15.10;;;9.48;;
71395;SDS011;59888;55.814;37.132;2023-08-12T02:46:15;13.38;;;8.45;;
71395;SDS011;59888;55.814;37.132;2023-08-12T02:48:42;11.88;;;8.90;;
71395;SDS011;59888;55.814;37.132;2023-08-12T02:51:09;19.17;;;9.60;;
71395;SDS011;59888;55.814;37.132;2023-08-12T02:53:36;11.85;;;8.32;;
71395;SDS011;59888;55.814;37.132;2023-08-12T02:56:02;11.10;;;8.20;;
71395;SDS011;59888;55.814;37.132;2023-08-12T02:58:29;15.52;;;8.57;;
71395;SDS011;59888;55.814;37.132;2023-08-12T03:00:55;16.77;;;9.13;;
71395;SDS011;59888;55.814;37.132;2023-08-12T03:03:21;15.05;;;8.80;;
71395;SDS011;59888;55.814;37.132;2023-08-12T03:05:48;12.70;;;8.50;;
71395;SDS011;59888;55.814;37.132;2023-08-12T03:08:15;15.05;;;9.10;;
71395;SDS011;59888;55.814;37.132;2023-08-12T03:10:45;13.00;;;9.10;;
71395;SDS011;59888;55.814;37.132;2023-08-12T03:13:13;12.13;;;7.88;;
71395;SDS011;59888;55.814;37.132;2023-08-12T03:15:39;15.13;;;9.05;;
71395;SDS011;59888;55.814;37.132;2023-08-12T03:18:08;13.15;;;8.32;;
71395;SDS011;59888;55.814;37.132;2023-08-12T03:20:36;14.35;;;8.88;;
71395;SDS011;59888;55.814;37.132;2023-08-12T03:23:02;15.77;;;8.15;;
71395;SDS011;59888;55.814;37.132;2023-08-12T03:25:29;13.15;;;8.60;;
71395;SDS011;59888;55.814;37.132;2023-08-12T03:27:55;14.90;;;9.10;;
71395;SDS011;59888;55.814;37.132;2023-08-12T03:30:22;12.27;;;8.40;;
71395;SDS011;59888;55.814;37.132;2023-08-12T03:32:48;12.55;;;8.32;;
71395;SDS011;59888;55.814;37.132;2023-08-12T03:35:15;12.30;;;8.18;;
71395;SDS011;59888;55.814;37.132;2023-08-12T03:37:42;12.60;;;8.80;;
71395;SDS011;59888;55.814;37.132;2023-08-12T03:40:08;14.73;;;8.90;;
71395;SDS011;59888;55.814;37.132;2023-08-12T03:42:37;14.25;;;8.27;;
71395;SDS011;59888;55.814;37.132;2023-08-12T03:45:03;15.00;;;8.70;;
71395;SDS011;59888;55.814;37.132;2023-08-12T03:47:32;15.50;;;8.77;;
71395;SDS011;59888;55.814;37.132;2023-08-12T03:49:59;14.82;;;8.88;;
71395;SDS011;59888;55.814;37.132;2023-08-12T03:52:25;11.43;;;8.02;;
71395;SDS011;59888;55.814;37.132;2023-08-12T03:54:51;10.60;;;8.25;;
71395;SDS011;59888;55.814;37.132;2023-08-12T03:57:20;11.10;;;8.55;;
71395;SDS011;59888;55.814;37.132;2023-08-12T03:59:47;15.30;;;9.07;;
71395;SDS011;59888;55.814;37.132;2023-08-12T04:02:13;13.25;;;9.38;;
71395;SDS011;59888;55.814;37.132;2023-08-12T04:04:39;13.43;;;9.07;;
71395;SDS011;59888;55.814;37.132;2023-08-12T04:07:06;11.40;;;9.02;;
71395;SDS011;59888;55.814;37.132;2023-08-12T04:09:31;12.80;;;8.85;;
71395;SDS011;59888;55.814;37.132;2023-08-12T04:11:58;13.05;;;8.18;;
71395;SDS011;59888;55.814;37.132;2023-08-12T04:14:24;10.88;;;8.65;;
71395;SDS011;59888;55.814;37.132;2023-08-12T04:16:50;12.18;;;8.55;;
71395;SDS011;59888;55.814;37.132;2023-08-12T04:19:16;14.35;;;8.45;;
71395;SDS011;59888;55.814;37.132;2023-08-12T04:21:42;13.63;;;8.20;;
71395;SDS011;59888;55.814;37.132;2023-08-12T04:24:12;12.10;;;9.07;;
71395;SDS011;59888;55.814;37.132;2023-08-12T04:26:38;11.73;;;8.18;;
71395;SDS011;59888;55.814;37.132;2023-08-12T04:29:05;10.95;;;7.95;;
71395;SDS011;59888;55.814;37.132;2023-08-12T04:31:34;13.18;;;8.43;;
71395;SDS011;59888;55.814;37.132;2023-08-12T04:34:02;12.52;;;8.85;;
71395;SDS011;59888;55.814;37.132;2023-08-12T04:36:30;13.95;;;8.07;;
71395;SDS011;59888;55.814;37.132;2023-08-12T04:38:59;11.52;;;7.90;;
71395;SDS011;59888;55.814;37.132;2023-08-12T04:41:25;10.40;;;8.25;;
71395;SDS011;59888;55.814;37.132;2023-08-12T04:43:53;11.90;;;8.65;;
71395;SDS011;59888;55.814;37.132;2023-08-12T04:46:19;12.15;;;9.05;;
71395;SDS011;59888;55.814;37.132;2023-08-12T04:48:46;13.30;;;8.55;;
71395;SDS011;59888;55.814;37.132;2023-08-12T04:51:12;13.45;;;8.20;;
71395;SDS011;59888;55.814;37.132;2023-08-12T04:53:40;13.15;;;8.60;;
71395;SDS011;59888;55.814;37.132;2023-08-12T04:56:06;14.57;;;8.45;;
71395;SDS011;59888;55.814;37.132;2023-08-12T04:58:33;12.32;;;8.55;;
71395;SDS011;59888;55.814;37.132;2023-08-12T05:01:00;11.32;;;8.85;;
71395;SDS011;59888;55.814;37.132;2023-08-12T05:03:27;11.32;;;8.65;;
71395;SDS011;59888;55.814;37.132;2023-08-12T05:05:54;11.90;;;8.25;;
71395;SDS011;59888;55.814;37.132;2023-08-12T05:08:24;11.98;;;8.80;;
71395;SDS011;59888;55.814;37.132;2023-08-12T05:10:50;13.57;;;8.57;;
71395;SDS011;59888;55.814;37.132;2023-08-12T05:13:18;12.95;;;8.95;;
71395;SDS011;59888;55.814;37.132;2023-08-12T05:15:45;12.07;;;7.93;;
71395;SDS011;59888;55.814;37.132;2023-08-12T05:18:13;13.25;;;8.93;;
71395;SDS011;59888;55.814;37.132;2023-08-12T05:20:40;13.48;;;8.98;;
71395;SDS011;59888;55.814;37.132;2023-08-12T05:23:07;11.27;;;8.27;;
71395;SDS011;59888;55.814;37.132;2023-08-12T05:25:33;12.43;;;8.48;;
71395;SDS011;59888;55.814;37.132;2023-08-12T05:27:59;10.80;;;8.50;;
71395;SDS011;59888;55.814;37.132;2023-08-12T05:30:25;12.27;;;8.32;;
71395;SDS011;59888;55.814;37.132;2023-08-12T05:32:51;10.57;;;7.53;;
71395;SDS011;59888;55.814;37.132;2023-08-12T05:35:18;14.00;;;8.45;;
71395;SDS011;59888;55.814;37.132;2023-08-12T05:37:44;12.45;;;8.25;;
71395;SDS011;59888;55.814;37.132;2023-08-12T05:40:10;11.65;;;8.35;;
71395;SDS011;59888;55.814;37.132;2023-08-12T05:42:39;12.55;;;8.10;;
71395;SDS011;59888;55.814;37.132;2023-08-12T05:45:05;13.95;;;8.32;;
71395;SDS011;59888;55.814;37.132;2023-08-12T05:47:32;11.40;;;8.25;;
71395;SDS011;59888;55.814;37.132;2023-08-12T05:49:59;12.57;;;8.02;;
71395;SDS011;59888;55.814;37.132;2023-08-12T05:52:28;13.68;;;7.88;;
71395;SDS011;59888;55.814;37.132;2023-08-12T05:54:54;14.40;;;8.23;;
71395;SDS011;59888;55.814;37.132;2023-08-12T05:57:20;15.10;;;7.38;;
71395;SDS011;59888;55.814;37.132;2023-08-12T05:59:46;10.85;;;7.82;;
71395;SDS011;59888;55.814;37.132;2023-08-12T06:02:13;10.93;;;7.40;;
71395;SDS011;59888;55.814;37.132;2023-08-12T06:04:39;14.15;;;7.70;;
71395;SDS011;59888;55.814;37.132;2023-08-12T06:07:05;12.07;;;8.15;;
71395;SDS011;59888;55.814;37.132;2023-08-12T06:09:31;12.30;;;7.70;;
71395;SDS011;59888;55.814;37.132;2023-08-12T06:11:57;14.38;;;7.72;;
71395;SDS011;59888;55.814;37.132;2023-08-12T06:14:23;12.32;;;7.90;;
71395;SDS011;59888;55.814;37.132;2023-08-12T06:16:49;10.57;;;7.22;;
71395;SDS011;59888;55.814;37.132;2023-08-12T06:19:15;9.50;;;6.95;;
71395;SDS011;59888;55.814;37.132;2023-08-12T06:21:41;9.18;;;6.90;;
71395;SDS011;59888;55.814;37.132;2023-08-12T06:24:07;11.93;;;7.53;;
71395;SDS011;59888;55.814;37.132;2023-08-12T06:26:34;10.65;;;7.35;;
71395;SDS011;59888;55.814;37.132;2023-08-12T06:28:59;10.75;;;7.00;;
71395;SDS011;59888;55.814;37.132;2023-08-12T06:31:27;12.48;;;7.50;;
71395;SDS011;59888;55.814;37.132;2023-08-12T06:33:53;11.05;;;7.05;;
71395;SDS011;59888;55.814;37.132;2023-08-12T06:36:19;8.63;;;7.05;;
71395;SDS011;59888;55.814;37.132;2023-08-12T06:38:45;10.60;;;7.00;;
71395;SDS011;59888;55.814;37.132;2023-08-12T06:41:14;11.88;;;7.32;;
71395;SDS011;59888;55.814;37.132;2023-08-12T06:43:40;12.60;;;7.22;;
71395;SDS011;59888;55.814;37.132;2023-08-12T06:46:06;11.52;;;7.05;;
71395;SDS011;59888;55.814;37.132;2023-08-12T06:48:32;14.25;;;7.18;;
71395;SDS011;59888;55.814;37.132;2023-08-12T06:50:58;11.10;;;6.25;;
71395;SDS011;59888;55.814;37.132;2023-08-12T06:53:25;11.32;;;6.78;;
71395;SDS011;59888;55.814;37.132;2023-08-12T06:55:52;8.15;;;6.30;;
71395;SDS011;59888;55.814;37.132;2023-08-12T06:58:20;12.40;;;6.80;;
71395;SDS011;59888;55.814;37.132;2023-08-12T07:00:46;10.63;;;7.07;;
71395;SDS011;59888;55.814;37.132;2023-08-12T07:03:12;9.73;;;6.53;;
71395;SDS011;59888;55.814;37.132;2023-08-12T07:05:38;10.10;;;6.18;;
71395;SDS011;59888;55.814;37.132;2023-08-12T07:08:04;8.13;;;6.55;;
71395;SDS011;59888;55.814;37.132;2023-08-12T07:10:31;11.85;;;7.13;;
71395;SDS011;59888;55.814;37.132;2023-08-12T07:12:57;9.77;;;6.63;;
71395;SDS011;59888;55.814;37.132;2023-08-12T07:15:23;10.45;;;6.75;;
71395;SDS011;59888;55.814;37.132;2023-08-12T07:17:49;7.10;;;5.75;;
71395;SDS011;59888;55.814;37.132;2023-08-12T07:20:15;8.88;;;6.53;;
71395;SDS011;59888;55.814;37.132;2023-08-12T07:22:41;11.50;;;6.68;;
71395;SDS011;59888;55.814;37.132;2023-08-12T07:25:07;10.25;;;6.10;;
71395;SDS011;59888;55.814;37.132;2023-08-12T07:27:33;12.60;;;6.15;;
71395;SDS011;59888;55.814;37.132;2023-08-12T07:29:59;8.43;;;6.30;;
71395;SDS011;59888;55.814;37.132;2023-08-12T07:32:25;11.20;;;5.85;;
71395;SDS011;59888;55.814;37.132;2023-08-12T07:34:51;10.57;;;7.00;;
71395;SDS011;59888;55.814;37.132;2023-08-12T07:37:17;12.43;;;6.10;;
71395;SDS011;59888;55.814;37.132;2023-08-12T07:39:46;7.90;;;5.80;;
71395;SDS011;59888;55.814;37.132;2023-08-12T07:42:12;12.07;;;6.15;;
71395;SDS011;59888;55.814;37.132;2023-08-12T07:44:38;10.57;;;6.20;;
71395;SDS011;59888;55.814;37.132;2023-08-12T07:47:04;9.23;;;6.22;;
71395;SDS011;59888;55.814;37.132;2023-08-12T07:49:30;10.35;;;5.90;;
71395;SDS011;59888;55.814;37.132;2023-08-12T07:51:56;12.40;;;6.57;;
71395;SDS011;59888;55.814;37.132;2023-08-12T07:54:22;10.82;;;6.07;;
71395;SDS011;59888;55.814;37.132;2023-08-12T07:56:48;8.57;;;5.80;;
71395;SDS011;59888;55.814;37.132;2023-08-12T07:59:19;12.30;;;6.50;;
71395;SDS011;59888;55.814;37.132;2023-08-12T08:01:46;9.25;;;6.03;;
71395;SDS011;59888;55.814;37.132;2023-08-12T08:04:12;12.93;;;6.50;;
71395;SDS011;59888;55.814;37.132;2023-08-12T08:06:38;9.85;;;6.40;;
71395;SDS011;59888;55.814;37.132;2023-08-12T08:09:05;13.82;;;6.50;;
71395;SDS011;59888;55.814;37.132;2023-08-12T08:11:31;12.73;;;6.05;;
71395;SDS011;59888;55.814;37.132;2023-08-12T08:13:58;12.95;;;7.18;;
71395;SDS011;59888;55.814;37.132;2023-08-12T08:16:24;11.48;;;6.40;;
71395;SDS011;59888;55.814;37.132;2023-08-12T08:18:50;9.38;;;6.40;;
71395;SDS011;59888;55.814;37.132;2023-08-12T08:21:16;12.57;;;7.00;;
71395;SDS011;59888;55.814;37.132;2023-08-12T08:23:42;12.20;;;6.55;;
71395;SDS011;59888;55.814;37.132;2023-08-12T08:26:09;15.05;;;7.00;;
71395;SDS011;59888;55.814;37.132;2023-08-12T08:28:35;13.38;;;6.45;;
71395;SDS011;59888;55.814;37.132;2023-08-12T08:31:01;11.52;;;7.47;;
71395;SDS011;59888;55.814;37.132;2023-08-12T08:33:27;11.85;;;7.22;;
71395;SDS011;59888;55.814;37.132;2023-08-12T08:35:53;10.77;;;6.82;;
71395;SDS011;59888;55.814;37.132;2023-08-12T08:38:19;12.73;;;7.43;;
71395;SDS011;59888;55.814;37.132;2023-08-12T08:40:45;13.00;;;7.53;;
71395;SDS011;59888;55.814;37.132;2023-08-12T08:43:12;11.82;;;7.22;;
71395;SDS011;59888;55.814;37.132;2023-08-12T08:45:42;10.23;;;7.07;;
71395;SDS011;59888;55.814;37.132;2023-08-12T08:48:10;12.63;;;6.88;;
71395;SDS011;59888;55.814;37.132;2023-08-12T08:50:37;11.65;;;6.65;;
71395;SDS011;59888;55.814;37.132;2023-08-12T08:53:06;14.10;;;7.15;;
71395;SDS011;59888;55.814;37.132;2023-08-12T08:55:32;12.57;;;7.53;;
71395;SDS011;59888;55.814;37.132;2023-08-12T08:57:58;12.70;;;7.88;;
71395;SDS011;59888;55.814;37.132;2023-08-12T09:00:25;16.52;;;8.50;;
71395;SDS011;59888;55.814;37.132;2023-08-12T09:02:52;11.68;;;7.85;;
71395;SDS011;59888;55.814;37.132;2023-08-12T09:05:19;11.60;;;7.45;;
71395;SDS011;59888;55.814;37.132;2023-08-12T09:07:46;11.93;;;7.78;;
71395;SDS011;59888;55.814;37.132;2023-08-12T09:10:14;12.18;;;7.72;;
71395;SDS011;59888;55.814;37.132;2023-08-12T09:12:42;11.40;;;7.15;;
71395;SDS011;59888;55.814;37.132;2023-08-12T09:15:09;14.80;;;7.88;;
71395;SDS011;59888;55.814;37.132;2023-08-12T09:17:35;11.88;;;7.15;;
71395;SDS011;59888;55.814;37.132;2023-08-12T09:20:02;10.70;;;6.97;;
71395;SDS011;59888;55.814;37.132;2023-08-12T09:22:33;10.50;;;7.18;;
71395;SDS011;59888;55.814;37.132;2023-08-12T09:24:59;9.90;;;7.00;;
71395;SDS011;59888;55.814;37.132;2023-08-12T09:27:25;15.18;;;7.30;;
71395;SDS011;59888;55.814;37.132;2023-08-12T09:29:55;11.23;;;7.43;;
71395;SDS011;59888;55.814;37.132;2023-08-12T09:32:23;11.52;;;7.50;;
71395;SDS011;59888;55.814;37.132;2023-08-12T09:34:53;12.43;;;7.60;;
71395;SDS011;59888;55.814;37.132;2023-08-12T09:37:20;12.88;;;7.97;;
71395;SDS011;59888;55.814;37.132;2023-08-12T09:39:47;15.75;;;7.60;;
71395;SDS011;59888;55.814;37.132;2023-08-12T09:42:17;10.35;;;7.60;;
71395;SDS011;59888;55.814;37.132;2023-08-12T09:44:44;10.55;;;7.53;;
71395;SDS011;59888;55.814;37.132;2023-08-12T09:47:10;13.60;;;7.60;;
71395;SDS011;59888;55.814;37.132;2023-08-12T09:49:40;16.75;;;7.95;;
71395;SDS011;59888;55.814;37.132;2023-08-12T09:52:07;11.02;;;7.47;;
71395;SDS011;59888;55.814;37.132;2023-08-12T09:54:34;10.95;;;7.72;;
71395;SDS011;59888;55.814;37.132;2023-08-12T09:57:01;12.57;;;7.70;;
71395;SDS011;59888;55.814;37.132;2023-08-12T09:59:32;13.63;;;7.65;;
71395;SDS011;59888;55.814;37.132;2023-08-12T10:02:01;11.07;;;7.45;;
71395;SDS011;59888;55.814;37.132;2023-08-12T10:04:35;12.73;;;7.63;;
71395;SDS011;59888;55.814;37.132;2023-08-12T10:07:10;14.27;;;8.23;;
71395;SDS011;59888;55.814;37.132;2023-08-12T10:09:40;14.15;;;7.93;;
71395;SDS011;59888;55.814;37.132;2023-08-12T10:12:07;11.68;;;7.55;;
71395;SDS011;59888;55.814;37.132;2023-08-12T10:14:34;9.75;;;7.40;;
71395;SDS011;59888;55.814;37.132;2023-08-12T10:17:01;11.77;;;7.65;;
71395;SDS011;59888;55.814;37.132;2023-08-12T10:19:28;12.07;;;7.95;;
71395;SDS011;59888;55.814;37.132;2023-08-12T10:21:55;12.65;;;7.93;;
71395;SDS011;59888;55.814;37.132;2023-08-12T10:24:28;12.13;;;7.93;;
71395;SDS011;59888;55.814;37.132;2023-08-12T10:26:55;15.07;;;8.63;;
71395;SDS011;59888;55.814;37.132;2023-08-12T10:29:24;13.23;;;8.15;;
71395;SDS011;59888;55.814;37.132;2023-08-12T10:31:50;17.05;;;8.70;;
71395;SDS011;59888;55.814;37.132;2023-08-12T10:34:20;12.10;;;7.88;;
71395;SDS011;59888;55.814;37.132;2023-08-12T10:36:57;11.30;;;8.10;;
71395;SDS011;59888;55.814;37.132;2023-08-12T10:39:27;11.25;;;7.78;;
71395;SDS011;59888;55.814;37.132;2023-08-12T10:41:55;11.18;;;7.88;;
71395;SDS011;59888;55.814;37.132;2023-08-12T10:44:21;10.93;;;7.70;;
71395;SDS011;59888;55.814;37.132;2023-08-12T10:46:53;11.50;;;7.47;;
71395;SDS011;59888;55.814;37.132;2023-08-12T10:49:20;13.52;;;7.70;;
71395;SDS011;59888;55.814;37.132;2023-08-12T10:51:51;12.57;;;8.25;;
71395;SDS011;59888;55.814;37.132;2023-08-12T10:54:26;11.27;;;7.82;;
71395;SDS011;59888;55.814;37.132;2023-08-12T11:02:29;11.63;;;7.53;;
71395;SDS011;59888;55.814;37.132;2023-08-12T11:05:08;13.15;;;8.57;;
71395;SDS011;59888;55.814;37.132;2023-08-12T11:12:48;9.88;;;8.20;;
71395;SDS011;59888;55.814;37.132;2023-08-12T11:15:18;10.40;;;7.95;;
71395;SDS011;59888;55.814;37.132;2023-08-12T11:17:54;14.07;;;8.65;;
71395;SDS011;59888;55.814;37.132;2023-08-12T11:20:21;12.50;;;8.38;;
71395;SDS011;59888;55.814;37.132;2023-08-12T11:22:47;12.10;;;8.38;;
71395;SDS011;59888;55.814;37.132;2023-08-12T11:25:13;11.88;;;8.15;;
71395;SDS011;59888;55.814;37.132;2023-08-12T11:27:44;13.88;;;8.95;;
71395;SDS011;59888;55.814;37.132;2023-08-12T11:30:15;13.93;;;8.05;;
71395;SDS011;59888;55.814;37.132;2023-08-12T11:32:43;14.48;;;8.80;;
71395;SDS011;59888;55.814;37.132;2023-08-12T11:35:10;12.63;;;8.43;;
71395;SDS011;59888;55.814;37.132;2023-08-12T11:37:39;15.38;;;8.38;;
71395;SDS011;59888;55.814;37.132;2023-08-12T11:40:08;12.75;;;8.48;;
71395;SDS011;59888;55.814;37.132;2023-08-12T11:42:36;13.20;;;8.77;;
71395;SDS011;59888;55.814;37.132;2023-08-12T11:45:03;12.88;;;8.98;;
71395;SDS011;59888;55.814;37.132;2023-08-12T11:47:31;16.45;;;8.48;;
71395;SDS011;59888;55.814;37.132;2023-08-12T11:49:57;15.10;;;8.77;;
71395;SDS011;59888;55.814;37.132;2023-08-12T11:52:23;13.15;;;8.27;;
71395;SDS011;59888;55.814;37.132;2023-08-12T11:54:50;12.82;;;7.93;;
71395;SDS011;59888;55.814;37.132;2023-08-12T11:57:16;11.45;;;8.20;;
71395;SDS011;59888;55.814;37.132;2023-08-12T11:59:43;14.98;;;9.35;;
71395;SDS011;59888;55.814;37.132;2023-08-12T12:02:10;12.32;;;8.15;;
71395;SDS011;59888;55.814;37.132;2023-08-12T12:04:37;12.38;;;8.52;;
71395;SDS011;59888;55.814;37.132;2023-08-12T12:07:03;13.75;;;9.30;;
71395;SDS011;59888;55.814;37.132;2023-08-12T12:09:43;13.20;;;8.50;;
71395;SDS011;59888;55.814;37.132;2023-08-12T12:12:09;11.45;;;8.40;;
71395;SDS011;59888;55.814;37.132;2023-08-12T12:14:36;13.15;;;9.40;;
71395;SDS011;59888;55.814;37.132;2023-08-12T12:17:06;10.85;;;8.40;;
71395;SDS011;59888;55.814;37.132;2023-08-12T12:19:34;13.98;;;8.68;;
71395;SDS011;59888;55.814;37.132;2023-08-12T12:22:02;11.05;;;7.90;;
71395;SDS011;59888;55.814;37.132;2023-08-12T12:24:30;13.88;;;9.00;;
71395;SDS011;59888;55.814;37.132;2023-08-12T12:26:57;13.00;;;7.90;;
71395;SDS011;59888;55.814;37.132;2023-08-12T12:29:23;14.00;;;7.90;;
71395;SDS011;59888;55.814;37.132;2023-08-12T12:31:52;11.52;;;8.07;;
71395;SDS011;59888;55.814;37.132;2023-08-12T12:34:18;14.68;;;8.30;;
71395;SDS011;59888;55.814;37.132;2023-08-12T12:36:44;12.13;;;8.52;;
71395;SDS011;59888;55.814;37.132;2023-08-12T12:39:10;12.60;;;8.05;;
71395;SDS011;59888;55.814;37.132;2023-08-12T12:41:37;13.23;;;8.27;;
71395;SDS011;59888;55.814;37.132;2023-08-12T12:44:04;12.68;;;7.82;;
71395;SDS011;59888;55.814;37.132;2023-08-12T12:46:30;11.43;;;8.38;;
71395;SDS011;59888;55.814;37.132;2023-08-12T12:48:56;12.00;;;8.70;;
71395;SDS011;59888;55.814;37.132;2023-08-12T12:51:22;12.20;;;8.30;;
71395;SDS011;59888;55.814;37.132;2023-08-12T12:53:51;14.10;;;8.50;;
71395;SDS011;59888;55.814;37.132;2023-08-12T12:56:17;12.30;;;8.18;;
71395;SDS011;59888;55.814;37.132;2023-08-12T12:58:43;13.07;;;8.25;;
71395;SDS011;59888;55.814;37.132;2023-08-12T13:01:09;14.13;;;7.78;;
71395;SDS011;59888;55.814;37.132;2023-08-12T13:03:35;9.85;;;7.45;;
71395;SDS011;59888;55.814;37.132;2023-08-12T13:06:01;11.70;;;8.30;;
71395;SDS011;59888;55.814;37.132;2023-08-12T13:08:28;15.32;;;7.85;;
71395;SDS011;59888;55.814;37.132;2023-08-12T13:10:56;11.75;;;7.22;;
71395;SDS011;59888;55.814;37.132;2023-08-12T13:13:22;12.27;;;7.70;;
71395;SDS011;59888;55.814;37.132;2023-08-12T13:15:48;14.05;;;8.30;;
71395;SDS011;59888;55.814;37.132;2023-08-12T13:18:14;11.85;;;7.60;;
71395;SDS011;59888;55.814;37.132;2023-08-12T13:20:41;11.45;;;7.75;;
71395;SDS011;59888;55.814;37.132;2023-08-12T13:23:07;11.27;;;7.40;;
71395;SDS011;59888;55.814;37.132;2023-08-12T13:25:33;12.15;;;8.38;;
71395;SDS011;59888;55.814;37.132;2023-08-12T13:28:00;15.32;;;8.60;;
71395;SDS011;59888;55.814;37.132;2023-08-12T13:30:27;11.20;;;7.32;;
71395;SDS011;59888;55.814;37.132;2023-08-12T13:32:53;14.30;;;8.07;;
71395;SDS011;59888;55.814;37.132;2023-08-12T13:35:20;10.70;;;7.40;;
71395;SDS011;59888;55.814;37.132;2023-08-12T13:37:46;11.07;;;7.53;;
71395;SDS011;59888;55.814;37.132;2023-08-12T13:40:12;10.93;;;7.47;;
71395;SDS011;59888;55.814;37.132;2023-08-12T13:42:41;13.30;;;7.18;;
71395;SDS011;59888;55.814;37.132;2023-08-12T13:45:07;11.85;;;7.25;;
71395;SDS011;59888;55.814;37.132;2023-08-12T13:47:35;10.25;;;6.75;;
71395;SDS011;59888;55.814;37.132;2023-08-12T13:50:01;9.00;;;6.40;;
71395;SDS011;59888;55.814;37.132;2023-08-12T13:52:30;10.10;;;6.82;;
71395;SDS011;59888;55.814;37.132;2023-08-12T13:54:58;10.50;;;7.20;;
71395;SDS011;59888;55.814;37.132;2023-08-12T13:57:24;12.38;;;6.78;;
71395;SDS011;59888;55.814;37.132;2023-08-12T13:59:50;11.02;;;6.78;;
71395;SDS011;59888;55.814;37.132;2023-08-12T14:02:16;11.07;;;6.57;;
71395;SDS011;59888;55.814;37.132;2023-08-12T14:04:42;8.80;;;6.35;;
71395;SDS011;59888;55.814;37.132;2023-08-12T14:07:08;10.63;;;6.13;;
71395;SDS011;59888;55.814;37.132;2023-08-12T14:09:34;9.00;;;5.82;;
71395;SDS011;59888;55.814;37.132;2023-08-12T14:12:00;9.32;;;6.07;;
71395;SDS011;59888;55.814;37.132;2023-08-12T14:14:26;7.45;;;5.32;;
71395;SDS011;59888;55.814;37.132;2023-08-12T14:16:54;10.38;;;5.95;;
71395;SDS011;59888;55.814;37.132;2023-08-12T14:19:20;11.45;;;6.35;;
71395;SDS011;59888;55.814;37.132;2023-08-12T14:21:48;8.13;;;6.15;;
71395;SDS011;59888;55.814;37.132;2023-08-12T14:24:14;8.65;;;6.00;;
71395;SDS011;59888;55.814;37.132;2023-08-12T14:26:40;9.65;;;6.38;;
71395;SDS011;59888;55.814;37.132;2023-08-12T14:29:06;11.07;;;6.30;;
71395;SDS011;59888;55.814;37.132;2023-08-12T14:31:33;9.65;;;6.32;;
71395;SDS011;59888;55.814;37.132;2023-08-12T14:34:00;10.43;;;6.22;;